Time;durP1;ratioP1;P1;durP2;ratioP2;P2;SDS_P1;SDS_P2;PMS_P1;PMS_P2;Temp;Humidity;BMP_temperature;BMP_pressure;BME280_temperature;BME280_humidity;BME280_pressure;Samples;Min_cycle;Max_cycle;Signal;HPM_P1;HPM_P2
2023/08/02 00:01:30;;;;;;;5.82;2.25;;;;;;;;;;4933948;29;20062;-92
2023/08/02 00:03:57;;;;;;;3.17;2.40;;;;;;;;;;4933273;29;20078;-92
2023/08/02 00:06:24;;;;;;;3.00;2.30;;;;;;;;;;4935021;29;20066;-93
2023/08/02 00:08:54;;;;;;;2.60;2.25;;;;;;;;;;4919810;29;20125;-93
2023/08/02 00:11:21;;;;;;;7.25;3.40;;;;;;;;;;4934167;29;20499;-91
2023/08/02 00:13:52;;;;;;;3.75;2.17;;;;;;;;;;4952336;29;20055;-93
2023/08/02 00:16:19;;;;;;;4.18;2.28;;;;;;;;;;4933188;29;20070;-92
2023/08/02 00:18:47;;;;;;;3.00;2.47;;;;;;;;;;4917262;29;20506;-92
2023/08/02 00:21:14;;;;;;;4.53;2.00;;;;;;;;;;4937881;29;20427;-92
2023/08/02 00:23:42;;;;;;;4.05;2.40;;;;;;;;;;4954334;28;20181;-89
2023/08/02 00:26:09;;;;;;;2.92;1.92;;;;;;;;;;4940320;29;20036;-93
2023/08/02 00:28:36;;;;;;;2.58;2.13;;;;;;;;;;4918097;29;20055;-91
2023/08/02 00:31:05;;;;;;;6.22;3.00;;;;;;;;;;4917922;29;20043;-92
2023/08/02 00:33:32;;;;;;;2.78;2.20;;;;;;;;;;4917452;29;20055;-93
2023/08/02 00:36:00;;;;;;;2.83;2.00;;;;;;;;;;4934442;29;20059;-93
2023/08/02 00:38:31;;;;;;;2.90;2.35;;;;;;;;;;4946347;28;20059;-91
2023/08/02 00:41:05;;;;;;;7.13;2.47;;;;;;;;;;4930676;29;20048;-92
2023/08/02 00:43:48;;;;;;;2.42;1.85;;;;;;;;;;4931049;29;20434;-91
2023/08/02 00:46:19;;;;;;;3.30;2.03;;;;;;;;;;4910957;29;20058;-93
2023/08/02 00:48:49;;;;;;;2.63;2.00;;;;;;;;;;4933785;29;20526;-93
2023/08/02 00:51:19;;;;;;;4.72;2.78;;;;;;;;;;4917454;29;20072;-92
2023/08/02 00:53:47;;;;;;;2.72;2.22;;;;;;;;;;4934032;29;20067;-92
2023/08/02 00:56:18;;;;;;;4.95;2.55;;;;;;;;;;4946578;28;20055;-93
2023/08/02 00:58:46;;;;;;;5.80;2.42;;;;;;;;;;4933081;29;20055;-92
2023/08/02 01:01:13;;;;;;;9.63;2.35;;;;;;;;;;4916915;29;20533;-92
2023/08/02 01:03:44;;;;;;;8.13;2.55;;;;;;;;;;4930335;29;20070;-92
2023/08/02 01:06:16;;;;;;;3.08;1.83;;;;;;;;;;4915931;29;20043;-92
2023/08/02 01:08:51;;;;;;;3.92;1.90;;;;;;;;;;4924315;29;20052;-92
2023/08/02 01:11:22;;;;;;;3.75;2.25;;;;;;;;;;4933006;29;20051;-92
2023/08/02 01:13:51;;;;;;;4.30;2.78;;;;;;;;;;4931785;29;20047;-93
2023/08/02 01:16:19;;;;;;;3.80;2.10;;;;;;;;;;4914078;29;20051;-92
2023/08/02 01:18:51;;;;;;;4.35;2.58;;;;;;;;;;4925354;29;20043;-91
2023/08/02 01:21:24;;;;;;;9.02;3.00;;;;;;;;;;4935201;29;20054;-92
2023/08/02 01:23:52;;;;;;;3.65;1.95;;;;;;;;;;4937370;29;20054;-92
2023/08/02 01:26:27;;;;;;;5.63;2.80;;;;;;;;;;4931372;29;20532;-92
2023/08/02 01:28:55;;;;;;;3.55;2.15;;;;;;;;;;4917201;29;20055;-92
2023/08/02 01:31:23;;;;;;;7.28;2.90;;;;;;;;;;4933100;29;20043;-92
2023/08/02 01:33:55;;;;;;;3.80;2.15;;;;;;;;;;4932524;29;20049;-92
2023/08/02 01:36:26;;;;;;;5.95;3.58;;;;;;;;;;4929895;29;20048;-93
2023/08/02 01:38:53;;;;;;;3.83;3.45;;;;;;;;;;4916555;29;20507;-91
2023/08/02 01:41:23;;;;;;;5.68;2.22;;;;;;;;;;4920508;29;20066;-93
2023/08/02 01:43:52;;;;;;;3.20;2.35;;;;;;;;;;4932187;29;20083;-92
2023/08/02 01:46:22;;;;;;;4.88;2.58;;;;;;;;;;4949432;28;20048;-94
2023/08/02 01:48:50;;;;;;;8.13;2.90;;;;;;;;;;4935697;29;20048;-93
2023/08/02 01:51:18;;;;;;;4.35;3.42;;;;;;;;;;4932726;29;20051;-92
2023/08/02 01:53:49;;;;;;;5.32;2.40;;;;;;;;;;4932681;29;20060;-92
2023/08/02 01:56:18;;;;;;;4.50;2.45;;;;;;;;;;4932214;29;20055;-92
2023/08/02 01:58:46;;;;;;;5.55;2.38;;;;;;;;;;4917288;29;20834;-92
2023/08/02 02:01:15;;;;;;;4.40;2.55;;;;;;;;;;4935765;29;20052;-92
2023/08/02 02:03:43;;;;;;;3.17;1.98;;;;;;;;;;4935357;29;20869;-94
2023/08/02 02:06:10;;;;;;;3.17;2.13;;;;;;;;;;4920628;29;20059;-91
2023/08/02 02:08:40;;;;;;;2.00;1.70;;;;;;;;;;4935516;29;20055;-92
2023/08/02 02:11:09;;;;;;;2.13;1.80;;;;;;;;;;4936394;29;20044;-93
2023/08/02 02:13:36;;;;;;;2.42;1.98;;;;;;;;;;4936769;29;20044;-92
2023/08/02 02:16:04;;;;;;;4.72;2.55;;;;;;;;;;4932689;29;20051;-92
2023/08/02 02:18:31;;;;;;;3.70;2.40;;;;;;;;;;4934150;29;20071;-92
2023/08/02 02:21:00;;;;;;;3.00;2.13;;;;;;;;;;4919891;29;20047;-92
2023/08/02 02:23:30;;;;;;;5.95;2.85;;;;;;;;;;4935708;29;20521;-91
2023/08/02 02:26:00;;;;;;;3.03;2.33;;;;;;;;;;4935659;29;20051;-92
2023/08/02 02:28:31;;;;;;;5.47;2.23;;;;;;;;;;4918422;29;20062;-91
2023/08/02 02:31:01;;;;;;;4.20;2.45;;;;;;;;;;4919804;29;20772;-92
2023/08/02 02:33:28;;;;;;;2.92;1.70;;;;;;;;;;4927360;29;20052;-92
2023/08/02 02:35:55;;;;;;;2.95;2.10;;;;;;;;;;4921076;29;20055;-92
2023/08/02 02:38:23;;;;;;;3.42;2.60;;;;;;;;;;4917050;29;20055;-92
2023/08/02 02:40:52;;;;;;;14.32;3.05;;;;;;;;;;4935266;29;20434;-91
2023/08/02 02:43:20;;;;;;;2.53;1.95;;;;;;;;;;4936857;29;20056;-92
2023/08/02 02:45:49;;;;;;;4.32;2.42;;;;;;;;;;4914820;29;20048;-92
2023/08/02 02:48:19;;;;;;;3.72;2.47;;;;;;;;;;4929822;29;20051;-92
2023/08/02 02:50:47;;;;;;;6.20;2.30;;;;;;;;;;4934346;29;20047;-93
2023/08/02 02:53:16;;;;;;;4.97;2.25;;;;;;;;;;4918446;29;20426;-93
2023/08/02 02:55:46;;;;;;;3.65;2.97;;;;;;;;;;4935083;29;20055;-91
2023/08/02 02:58:13;;;;;;;5.47;3.28;;;;;;;;;;4933763;29;20056;-90
2023/08/02 03:00:41;;;;;;;4.93;2.65;;;;;;;;;;4924026;29;20047;-92
2023/08/02 03:03:12;;;;;;;7.80;2.50;;;;;;;;;;4921407;29;20051;-91
2023/08/02 03:05:42;;;;;;;4.28;2.38;;;;;;;;;;4936242;29;20451;-92
2023/08/02 03:08:09;;;;;;;2.92;2.08;;;;;;;;;;4934588;29;20047;-92
2023/08/02 03:10:37;;;;;;;8.45;2.45;;;;;;;;;;4937545;28;20051;-91
2023/08/02 03:13:04;;;;;;;4.05;1.65;;;;;;;;;;4939511;29;20039;-93
2023/08/02 03:15:32;;;;;;;4.82;2.17;;;;;;;;;;4936934;29;20427;-92
2023/08/02 03:18:01;;;;;;;4.28;2.22;;;;;;;;;;4935370;29;20411;-92
2023/08/02 03:20:32;;;;;;;7.25;2.15;;;;;;;;;;4934853;29;20070;-92
2023/08/02 03:23:02;;;;;;;3.92;2.40;;;;;;;;;;4919652;29;20570;-92
2023/08/02 03:25:30;;;;;;;6.13;2.03;;;;;;;;;;4932625;29;20062;-93
2023/08/02 03:28:07;;;;;;;7.22;2.05;;;;;;;;;;4915724;29;20056;-92
2023/08/02 03:30:34;;;;;;;8.80;2.60;;;;;;;;;;4938198;29;20044;-92
2023/08/02 03:33:02;;;;;;;3.30;2.47;;;;;;;;;;4932449;29;20039;-91
2023/08/02 03:35:33;;;;;;;3.92;2.63;;;;;;;;;;4941670;29;20047;-93
2023/08/02 03:38:00;;;;;;;4.35;2.95;;;;;;;;;;4933602;29;20055;-93
2023/08/02 03:40:28;;;;;;;3.53;2.53;;;;;;;;;;4934517;29;20060;-92
2023/08/02 03:42:55;;;;;;;3.90;1.98;;;;;;;;;;4933603;29;20047;-91
2023/08/02 03:45:22;;;;;;;9.05;2.92;;;;;;;;;;4939963;29;20052;-90
2023/08/02 03:47:52;;;;;;;3.88;1.90;;;;;;;;;;4934075;28;20048;-91
2023/08/02 03:50:20;;;;;;;7.78;2.60;;;;;;;;;;4934472;29;20051;-91
2023/08/02 03:52:49;;;;;;;2.88;2.60;;;;;;;;;;4929116;29;20400;-90
2023/08/02 03:55:17;;;;;;;5.55;2.22;;;;;;;;;;4931557;29;20059;-91
2023/08/02 03:57:44;;;;;;;10.52;3.10;;;;;;;;;;4916430;29;20052;-92
2023/08/02 04:00:12;;;;;;;5.13;3.22;;;;;;;;;;4918540;29;20431;-91
2023/08/02 04:02:39;;;;;;;3.15;2.10;;;;;;;;;;4933730;29;20048;-91
2023/08/02 04:05:07;;;;;;;2.75;2.45;;;;;;;;;;4933371;29;20047;-93
2023/08/02 04:07:34;;;;;;;7.82;2.65;;;;;;;;;;4933634;29;20066;-91
2023/08/02 04:10:03;;;;;;;4.47;2.25;;;;;;;;;;4934019;29;20056;-90
2023/08/02 04:12:31;;;;;;;3.50;2.35;;;;;;;;;;4935037;29;20066;-93
2023/08/02 04:15:01;;;;;;;2.78;2.20;;;;;;;;;;4935167;29;20059;-92
2023/08/02 04:17:28;;;;;;;5.68;2.45;;;;;;;;;;4932142;29;20058;-92
2023/08/02 04:19:56;;;;;;;3.40;2.42;;;;;;;;;;4927713;29;20055;-92
2023/08/02 04:22:25;;;;;;;4.88;2.50;;;;;;;;;;4934788;29;20067;-93
2023/08/02 04:24:53;;;;;;;3.95;2.45;;;;;;;;;;4917239;29;20059;-92
2023/08/02 04:27:23;;;;;;;4.50;2.28;;;;;;;;;;4931549;29;20059;-93
2023/08/02 04:29:51;;;;;;;3.53;2.28;;;;;;;;;;4930009;29;20047;-93
2023/08/02 04:32:21;;;;;;;2.70;1.73;;;;;;;;;;4949761;28;20054;-92
2023/08/02 04:34:48;;;;;;;2.83;1.70;;;;;;;;;;4933843;29;20050;-92
2023/08/02 04:37:16;;;;;;;3.33;2.47;;;;;;;;;;4933363;29;20532;-92
2023/08/02 04:39:43;;;;;;;2.38;1.70;;;;;;;;;;4949530;28;20129;-92
2023/08/02 04:42:10;;;;;;;4.60;2.13;;;;;;;;;;4917222;29;20082;-92
2023/08/02 04:44:39;;;;;;;10.48;2.92;;;;;;;;;;4925536;29;20502;-93
2023/08/02 04:47:06;;;;;;;4.35;2.33;;;;;;;;;;4949295;28;20066;-92
2023/08/02 04:49:34;;;;;;;7.55;2.85;;;;;;;;;;4931723;29;20055;-92
2023/08/02 04:52:01;;;;;;;3.47;2.22;;;;;;;;;;4930209;29;20055;-92
2023/08/02 04:54:29;;;;;;;3.45;1.85;;;;;;;;;;4933185;29;20125;-92
2023/08/02 04:56:56;;;;;;;4.00;2.15;;;;;;;;;;4935041;29;20418;-93
2023/08/02 04:59:24;;;;;;;4.70;2.80;;;;;;;;;;4933270;29;20067;-92
2023/08/02 05:01:53;;;;;;;2.20;1.70;;;;;;;;;;4934925;29;20534;-92
2023/08/02 05:04:20;;;;;;;3.25;2.35;;;;;;;;;;4929924;29;20050;-94
2023/08/02 05:06:48;;;;;;;5.43;2.33;;;;;;;;;;4949339;28;20048;-93
2023/08/02 05:09:15;;;;;;;4.43;2.40;;;;;;;;;;4933877;29;20055;-94
2023/08/02 05:11:42;;;;;;;4.07;2.25;;;;;;;;;;4934791;29;20048;-92
2023/08/02 05:14:11;;;;;;;4.20;2.20;;;;;;;;;;4918322;29;20147;-93
2023/08/02 05:16:39;;;;;;;3.15;2.05;;;;;;;;;;4934790;29;20051;-92
2023/08/02 05:19:08;;;;;;;4.93;2.05;;;;;;;;;;4937666;29;20063;-94
2023/08/02 05:21:35;;;;;;;3.92;2.42;;;;;;;;;;4924564;29;20068;-93
2023/08/02 05:24:03;;;;;;;2.67;2.10;;;;;;;;;;4933361;29;20047;-92
2023/08/02 05:26:33;;;;;;;3.75;2.40;;;;;;;;;;4935210;29;20538;-92
2023/08/02 05:29:02;;;;;;;3.70;2.03;;;;;;;;;;4933276;29;20084;-93
2023/08/02 05:31:32;;;;;;;4.05;2.00;;;;;;;;;;4953002;28;20058;-94
2023/08/02 05:33:59;;;;;;;3.63;1.80;;;;;;;;;;4918418;29;20043;-92
2023/08/02 05:36:28;;;;;;;3.97;1.63;;;;;;;;;;4929735;29;20067;-94
2023/08/02 05:38:55;;;;;;;4.05;2.28;;;;;;;;;;4935359;29;20058;-93
2023/08/02 05:41:25;;;;;;;3.50;2.38;;;;;;;;;;4934090;29;20063;-93
2023/08/02 05:43:59;;;;;;;3.97;2.83;;;;;;;;;;4934201;29;20806;-93
2023/08/02 05:46:29;;;;;;;2.67;2.10;;;;;;;;;;4934634;29;20080;-93
2023/08/02 05:48:59;;;;;;;3.35;2.08;;;;;;;;;;4943543;28;20059;-93
2023/08/02 05:51:31;;;;;;;5.82;2.28;;;;;;;;;;4931075;29;20059;-92
2023/08/02 05:54:00;;;;;;;5.60;2.67;;;;;;;;;;4934451;29;20039;-92
2023/08/02 05:56:30;;;;;;;3.40;2.72;;;;;;;;;;4937073;29;20422;-92
2023/08/02 05:58:57;;;;;;;6.50;2.88;;;;;;;;;;4935927;29;20051;-92
2023/08/02 06:01:28;;;;;;;3.67;2.55;;;;;;;;;;4950422;28;20058;-92
2023/08/02 06:03:57;;;;;;;6.05;3.50;;;;;;;;;;4928461;29;20500;-93
2023/08/02 06:06:29;;;;;;;8.93;3.05;;;;;;;;;;4933192;29;20419;-92
2023/08/02 06:08:58;;;;;;;5.30;2.47;;;;;;;;;;4920257;29;20048;-92
2023/08/02 06:11:26;;;;;;;5.55;2.50;;;;;;;;;;4924282;29;20056;-91
2023/08/02 06:13:53;;;;;;;3.78;3.00;;;;;;;;;;4919920;29;20055;-92
2023/08/02 06:16:22;;;;;;;4.65;2.50;;;;;;;;;;4957045;29;20043;-90
2023/08/02 06:18:50;;;;;;;3.30;2.63;;;;;;;;;;4940307;29;20055;-93
2023/08/02 06:21:17;;;;;;;4.07;2.45;;;;;;;;;;4934907;29;20533;-93
2023/08/02 06:23:48;;;;;;;5.22;2.63;;;;;;;;;;4931660;29;20055;-92
2023/08/02 06:26:16;;;;;;;4.38;2.50;;;;;;;;;;4933691;29;20063;-93
2023/08/02 06:28:43;;;;;;;4.95;3.10;;;;;;;;;;4933497;29;20047;-93
2023/08/02 06:31:10;;;;;;;5.82;2.83;;;;;;;;;;4932817;29;20055;-92
2023/08/02 06:33:38;;;;;;;5.40;2.88;;;;;;;;;;4937067;29;20047;-92
2023/08/02 06:36:06;;;;;;;4.97;2.65;;;;;;;;;;4944551;29;20546;-91
2023/08/02 06:38:33;;;;;;;4.07;3.70;;;;;;;;;;4931255;29;20047;-92
2023/08/02 06:41:02;;;;;;;5.00;3.53;;;;;;;;;;4952714;28;20063;-92
2023/08/02 06:43:30;;;;;;;4.45;3.00;;;;;;;;;;4936053;29;20063;-92
2023/08/02 06:45:57;;;;;;;3.60;3.15;;;;;;;;;;4933303;29;20427;-93
2023/08/02 06:48:27;;;;;;;3.88;1.90;;;;;;;;;;4911992;29;20510;-93
2023/08/02 06:50:55;;;;;;;4.05;2.53;;;;;;;;;;4934674;29;20400;-93
2023/08/02 06:53:22;;;;;;;5.13;2.53;;;;;;;;;;4930668;29;20051;-93
2023/08/02 06:55:49;;;;;;;4.15;2.72;;;;;;;;;;4950084;28;20040;-92
2023/08/02 06:58:18;;;;;;;3.60;2.72;;;;;;;;;;4933683;29;20511;-93
2023/08/02 07:00:46;;;;;;;1.83;1.50;;;;;;;;;;4917936;29;20058;-93
2023/08/02 07:03:15;;;;;;;3.10;2.00;;;;;;;;;;4930825;29;20048;-91
2023/08/02 07:05:42;;;;;;;3.42;1.95;;;;;;;;;;4915625;29;20051;-92
2023/08/02 07:08:10;;;;;;;3.22;2.35;;;;;;;;;;4931502;29;20423;-92
2023/08/02 07:10:37;;;;;;;2.70;2.17;;;;;;;;;;4933247;29;20671;-92
2023/08/02 07:13:07;;;;;;;4.85;2.83;;;;;;;;;;4917561;29;20052;-92
2023/08/02 07:15:39;;;;;;;2.20;1.90;;;;;;;;;;4917687;29;20074;-93
2023/08/02 07:18:08;;;;;;;5.07;2.60;;;;;;;;;;4918392;29;20055;-92
2023/08/02 07:20:38;;;;;;;4.80;2.05;;;;;;;;;;4931226;29;20059;-92
2023/08/02 07:23:05;;;;;;;7.28;2.72;;;;;;;;;;4943973;28;20139;-91
2023/08/02 07:25:35;;;;;;;4.70;2.72;;;;;;;;;;4927953;29;20454;-92
2023/08/02 07:28:03;;;;;;;3.95;2.88;;;;;;;;;;4933035;29;20055;-92
2023/08/02 07:30:31;;;;;;;3.22;2.72;;;;;;;;;;4931069;29;20071;-92
2023/08/02 07:32:59;;;;;;;4.95;2.78;;;;;;;;;;4931390;29;20519;-93
2023/08/02 07:35:27;;;;;;;3.45;2.33;;;;;;;;;;4917093;29;20055;-93
2023/08/02 07:37:54;;;;;;;5.78;2.38;;;;;;;;;;4948863;28;20055;-92
2023/08/02 07:40:22;;;;;;;5.88;3.13;;;;;;;;;;4933935;29;20055;-93
2023/08/02 07:42:49;;;;;;;4.90;2.30;;;;;;;;;;4931201;29;20511;-91
2023/08/02 07:45:17;;;;;;;8.25;2.83;;;;;;;;;;4932870;29;20052;-92
2023/08/02 07:47:44;;;;;;;2.95;2.30;;;;;;;;;;4932391;29;20051;-93
2023/08/02 07:50:15;;;;;;;3.42;2.67;;;;;;;;;;4935039;29;20059;-91
2023/08/02 07:52:45;;;;;;;3.13;2.22;;;;;;;;;;4933197;29;20461;-92
2023/08/02 07:55:15;;;;;;;3.55;2.58;;;;;;;;;;4931931;29;20059;-93
2023/08/02 07:57:42;;;;;;;5.50;2.78;;;;;;;;;;4934753;29;20047;-92
2023/08/02 08:00:11;;;;;;;3.90;2.55;;;;;;;;;;4936152;29;20063;-93
2023/08/02 08:02:41;;;;;;;5.13;3.10;;;;;;;;;;4925763;29;20427;-92
2023/08/02 08:05:09;;;;;;;4.05;2.65;;;;;;;;;;4931920;29;20543;-93
2023/08/02 08:07:40;;;;;;;2.40;2.10;;;;;;;;;;4946222;28;20051;-92
2023/08/02 08:10:15;;;;;;;5.65;2.85;;;;;;;;;;4917245;29;20059;-92
2023/08/02 08:12:42;;;;;;;3.75;2.45;;;;;;;;;;4931239;29;20515;-92
2023/08/02 08:15:10;;;;;;;4.15;2.38;;;;;;;;;;4928858;29;20035;-92
2023/08/02 08:17:37;;;;;;;4.93;2.20;;;;;;;;;;4931972;29;20060;-93
2023/08/02 08:20:07;;;;;;;3.03;1.98;;;;;;;;;;4933536;29;20050;-93
2023/08/02 08:22:35;;;;;;;9.13;2.45;;;;;;;;;;4933422;29;20055;-92
2023/08/02 08:25:04;;;;;;;3.35;2.33;;;;;;;;;;4913783;29;20533;-92
2023/08/02 08:27:31;;;;;;;3.42;2.65;;;;;;;;;;4917598;29;20055;-93
2023/08/02 08:29:58;;;;;;;2.90;2.05;;;;;;;;;;4932342;29;20054;-92
2023/08/02 08:32:27;;;;;;;4.90;3.15;;;;;;;;;;4935952;29;20059;-93
2023/08/02 08:34:55;;;;;;;5.30;2.42;;;;;;;;;;4947718;28;20058;-92
2023/08/02 08:37:22;;;;;;;3.20;2.28;;;;;;;;;;4932828;29;20052;-92
2023/08/02 08:39:53;;;;;;;3.50;2.30;;;;;;;;;;4931492;29;20060;-92
2023/08/02 08:42:21;;;;;;;3.72;2.10;;;;;;;;;;4932492;29;20052;-92
2023/08/02 08:44:55;;;;;;;4.20;2.47;;;;;;;;;;4928313;29;20055;-92
2023/08/02 08:47:27;;;;;;;5.18;2.70;;;;;;;;;;4938802;29;20419;-92
2023/08/02 08:49:59;;;;;;;4.13;2.10;;;;;;;;;;4932725;29;20055;-92
2023/08/02 08:52:30;;;;;;;2.80;2.50;;;;;;;;;;4913872;29;20563;-93
2023/08/02 08:54:57;;;;;;;3.40;2.75;;;;;;;;;;4920840;29;20063;-93
2023/08/02 08:57:28;;;;;;;5.38;3.75;;;;;;;;;;4932718;29;20511;-92
2023/08/02 08:59:58;;;;;;;;;;;;;;;;;;4934774;29;20086;-92
2023/08/02 09:02:26;;;;;;;2.65;2.28;;;;;;;;;;4938363;29;20390;-93
2023/08/02 09:04:56;;;;;;;2.83;2.50;;;;;;;;;;4932174;29;20062;-93
2023/08/02 09:07:24;;;;;;;4.85;2.50;;;;;;;;;;4931417;29;20067;-93
2023/08/02 09:09:51;;;;;;;4.93;3.55;;;;;;;;;;4930366;29;20082;-91
2023/08/02 09:12:18;;;;;;;3.13;2.35;;;;;;;;;;4933441;28;20446;-90
2023/08/02 09:15:00;;;;;;;3.42;2.30;;;;;;;;;;4912142;29;20067;-92
2023/08/02 09:17:31;;;;;;;4.57;2.58;;;;;;;;;;4932773;29;21531;-93
2023/08/02 09:20:08;;;;;;;4.63;3.25;;;;;;;;;;4936582;29;20418;-92
2023/08/02 09:22:37;;;;;;;4.03;2.97;;;;;;;;;;4906063;29;20451;-93
2023/08/02 09:25:07;;;;;;;4.10;3.08;;;;;;;;;;4933011;29;20051;-93
2023/08/02 09:27:36;;;;;;;4.25;2.55;;;;;;;;;;4948871;28;20052;-93
2023/08/02 09:30:08;;;;;;;4.60;2.95;;;;;;;;;;4932242;29;20704;-92
2023/08/02 09:32:37;;;;;;;5.78;2.72;;;;;;;;;;4930383;29;20051;-92
2023/08/02 09:35:05;;;;;;;3.65;2.78;;;;;;;;;;4946743;28;20527;-93
2023/08/02 09:37:33;;;;;;;5.13;3.33;;;;;;;;;;4934080;29;20059;-93
2023/08/02 09:40:01;;;;;;;3.63;3.00;;;;;;;;;;4936246;29;20056;-94
2023/08/02 09:42:29;;;;;;;4.57;3.28;;;;;;;;;;4930759;29;20059;-93
2023/08/02 09:45:00;;;;;;;4.40;2.10;;;;;;;;;;4930731;29;20070;-93
2023/08/02 09:47:29;;;;;;;3.35;2.60;;;;;;;;;;4931812;29;20518;-93
2023/08/02 09:50:04;;;;;;;4.43;2.88;;;;;;;;;;4930708;29;20422;-93
2023/08/02 09:52:32;;;;;;;3.35;2.95;;;;;;;;;;4947286;28;20063;-93
2023/08/02 09:55:04;;;;;;;3.37;2.60;;;;;;;;;;4928586;29;20562;-93
2023/08/02 09:57:37;;;;;;;6.93;2.90;;;;;;;;;;4933635;29;20064;-93
2023/08/02 10:00:06;;;;;;;3.15;2.63;;;;;;;;;;4930309;29;20148;-92
2023/08/02 10:02:43;;;;;;;3.15;2.42;;;;;;;;;;4930789;29;20056;-92
2023/08/02 10:05:51;;;;;;;8.52;3.38;;;;;;;;;;4930449;29;20062;-92
2023/08/02 10:08:18;;;;;;;3.75;2.97;;;;;;;;;;4919827;29;20063;-93
2023/08/02 10:10:46;;;;;;;4.25;2.38;;;;;;;;;;4942965;29;20052;-93
2023/08/02 10:13:20;;;;;;;5.43;3.03;;;;;;;;;;4917460;29;20054;-92
2023/08/02 10:16:07;;;;;;;5.07;3.60;;;;;;;;;;4940123;29;20052;-92
2023/08/02 10:18:36;;;;;;;4.88;2.80;;;;;;;;;;4931155;29;20056;-94
2023/08/02 10:21:04;;;;;;;4.22;2.85;;;;;;;;;;4935584;29;20542;-93
2023/08/02 10:23:36;;;;;;;2.97;2.25;;;;;;;;;;4932842;29;20506;-93
2023/08/02 10:26:03;;;;;;;4.70;2.88;;;;;;;;;;4948400;28;20039;-93
2023/08/02 10:28:31;;;;;;;3.60;2.63;;;;;;;;;;4942732;29;20052;-91
2023/08/02 10:31:01;;;;;;;3.47;3.13;;;;;;;;;;4959004;29;20054;-92
2023/08/02 10:33:31;;;;;;;3.70;2.17;;;;;;;;;;4930816;29;20052;-92
2023/08/02 10:36:01;;;;;;;3.22;2.50;;;;;;;;;;4934459;29;20047;-93
2023/08/02 10:38:30;;;;;;;3.13;2.08;;;;;;;;;;4935884;29;20051;-93
2023/08/02 10:41:02;;;;;;;3.85;3.05;;;;;;;;;;4924933;29;20052;-93
2023/08/02 10:43:32;;;;;;;5.10;2.72;;;;;;;;;;4933595;29;20052;-93
2023/08/02 10:46:15;;;;;;;3.90;2.75;;;;;;;;;;4937372;29;20048;-92
2023/08/02 10:48:43;;;;;;;4.15;2.42;;;;;;;;;;4950913;28;20503;-93
2023/08/02 10:51:32;;;;;;;2.53;2.10;;;;;;;;;;4952001;28;20050;-92
2023/08/02 10:54:10;;;;;;;2.65;2.40;;;;;;;;;;4932989;29;20514;-92
2023/08/02 10:57:14;;;;;;;4.68;2.08;;;;;;;;;;4931403;29;20067;-92
2023/08/02 10:59:43;;;;;;;2.10;1.60;;;;;;;;;;4935825;29;20056;-92
2023/08/02 11:02:12;;;;;;;2.13;1.48;;;;;;;;;;4919336;29;20055;-93
2023/08/02 11:04:47;;;;;;;2.65;1.73;;;;;;;;;;4935408;29;20495;-93
2023/08/02 11:07:18;;;;;;;2.55;1.55;;;;;;;;;;4933821;29;20086;-91
2023/08/02 11:09:48;;;;;;;;;;;;;;;;;;4947017;28;20043;-93
2023/08/02 11:12:16;;;;;;;2.72;1.77;;;;;;;;;;4932314;29;20732;-93
2023/08/02 11:14:47;;;;;;;4.30;2.08;;;;;;;;;;4932779;29;20438;-93
2023/08/02 11:17:19;;;;;;;3.10;1.83;;;;;;;;;;4936742;29;20055;-94
2023/08/02 11:19:49;;;;;;;3.05;2.00;;;;;;;;;;4917552;29;20066;-92
2023/08/02 11:22:18;;;;;;;3.72;1.98;;;;;;;;;;4918383;29;20060;-94
2023/08/02 11:24:48;;;;;;;3.00;2.25;;;;;;;;;;4950701;28;20094;-92
2023/08/02 11:27:19;;;;;;;3.00;1.83;;;;;;;;;;4935804;29;20054;-92
2023/08/02 11:29:59;;;;;;;5.43;2.38;;;;;;;;;;4935807;29;20052;-92
2023/08/02 11:32:27;;;;;;;5.32;2.45;;;;;;;;;;4928048;29;20052;-93
2023/08/02 11:34:56;;;;;;;3.05;2.45;;;;;;;;;;4918349;29;20059;-93
2023/08/02 11:37:28;;;;;;;3.35;2.38;;;;;;;;;;4938496;29;20435;-94
2023/08/02 11:39:57;;;;;;;5.05;2.80;;;;;;;;;;4938058;29;20051;-93
2023/08/02 11:42:25;;;;;;;3.38;2.55;;;;;;;;;;4931525;29;20056;-92
2023/08/02 11:44:53;;;;;;;3.85;2.45;;;;;;;;;;4922183;29;20067;-93
2023/08/02 11:47:23;;;;;;;3.38;2.22;;;;;;;;;;4957815;29;20046;-90
2023/08/02 11:49:52;;;;;;;3.55;2.28;;;;;;;;;;4949877;28;20051;-92
2023/08/02 11:52:25;;;;;;;7.05;3.00;;;;;;;;;;4948378;28;20055;-93
2023/08/02 11:54:55;;;;;;;4.38;2.65;;;;;;;;;;4935682;29;20048;-94
2023/08/02 11:57:23;;;;;;;7.50;2.83;;;;;;;;;;4948118;28;20059;-93
2023/08/02 11:59:51;;;;;;;4.68;2.65;;;;;;;;;;4934400;29;20058;-93
2023/08/02 12:02:26;;;;;;;5.70;3.55;;;;;;;;;;4931760;29;20066;-92
2023/08/02 12:04:54;;;;;;;7.30;3.13;;;;;;;;;;4935333;29;20059;-93
2023/08/02 12:07:25;;;;;;;4.82;3.33;;;;;;;;;;4933028;28;20450;-93
2023/08/02 12:09:56;;;;;;;5.85;4.22;;;;;;;;;;4911543;29;20052;-92
2023/08/02 12:12:29;;;;;;;4.53;3.10;;;;;;;;;;4931164;29;20051;-92
2023/08/02 12:14:59;;;;;;;6.13;3.70;;;;;;;;;;4930207;29;20067;-92
2023/08/02 12:17:29;;;;;;;7.35;4.00;;;;;;;;;;4934613;29;20051;-92
2023/08/02 12:19:56;;;;;;;5.40;3.75;;;;;;;;;;4935279;29;20059;-93
2023/08/02 12:22:23;;;;;;;4.15;3.83;;;;;;;;;;4931260;29;20420;-93
2023/08/02 12:25:07;;;;;;;5.25;3.65;;;;;;;;;;4931338;29;20066;-93
2023/08/02 12:27:37;;;;;;;4.22;2.97;;;;;;;;;;4934620;28;20062;-93
2023/08/02 12:30:10;;;;;;;5.78;3.80;;;;;;;;;;4935542;29;20036;-92
2023/08/02 12:32:40;;;;;;;5.00;4.00;;;;;;;;;;4936104;29;20499;-93
2023/08/02 12:35:11;;;;;;;8.10;4.17;;;;;;;;;;4919129;29;20059;-94
2023/08/02 12:37:38;;;;;;;4.63;4.18;;;;;;;;;;4935759;29;20036;-94
2023/08/02 12:40:10;;;;;;;5.43;3.95;;;;;;;;;;4916400;29;20063;-92
2023/08/02 12:42:37;;;;;;;6.63;4.15;;;;;;;;;;4918737;29;20047;-92
2023/08/02 12:45:06;;;;;;;6.18;4.07;;;;;;;;;;4921334;29;20055;-92
2023/08/02 12:47:38;;;;;;;3.97;3.33;;;;;;;;;;4941867;28;20055;-92
2023/08/02 12:50:11;;;;;;;4.03;3.60;;;;;;;;;;4934260;29;20051;-92
2023/08/02 12:52:38;;;;;;;4.43;3.50;;;;;;;;;;4930763;29;20044;-93
2023/08/02 12:55:06;;;;;;;5.47;4.13;;;;;;;;;;4945256;29;20051;-93
2023/08/02 12:57:35;;;;;;;6.18;3.65;;;;;;;;;;4932640;29;20048;-91
2023/08/02 13:00:06;;;;;;;6.15;4.25;;;;;;;;;;4940370;29;20522;-94
2023/08/02 13:02:37;;;;;;;5.72;4.28;;;;;;;;;;4930035;29;20047;-92
2023/08/02 13:05:05;;;;;;;5.20;4.15;;;;;;;;;;4928606;29;20043;-91
2023/08/02 13:07:33;;;;;;;5.28;4.20;;;;;;;;;;4956128;29;20059;-91
2023/08/02 13:10:03;;;;;;;5.88;3.88;;;;;;;;;;4942045;29;20056;-93
2023/08/02 13:12:33;;;;;;;10.35;5.13;;;;;;;;;;4935029;29;20063;-92
2023/08/02 13:15:06;;;;;;;6.47;5.13;;;;;;;;;;4930781;29;20058;-92
2023/08/02 13:17:35;;;;;;;7.80;4.78;;;;;;;;;;4931123;29;20052;-92
2023/08/02 13:20:04;;;;;;;4.85;3.38;;;;;;;;;;4918754;29;20616;-92
2023/08/02 13:22:34;;;;;;;5.78;3.88;;;;;;;;;;4949473;29;20052;-92
2023/08/02 13:25:04;;;;;;;6.60;3.17;;;;;;;;;;4931111;29;20055;-92
2023/08/02 13:27:33;;;;;;;5.90;3.58;;;;;;;;;;4934320;29;20051;-93
2023/08/02 13:30:00;;;;;;;4.97;3.95;;;;;;;;;;4931613;29;20059;-92
2023/08/02 13:32:33;;;;;;;4.05;3.30;;;;;;;;;;4936383;29;20056;-92
2023/08/02 13:35:01;;;;;;;5.38;4.40;;;;;;;;;;4935093;29;20119;-92
2023/08/02 13:37:28;;;;;;;5.05;2.97;;;;;;;;;;4935380;29;20521;-91
2023/08/02 13:39:57;;;;;;;5.18;3.95;;;;;;;;;;4933802;29;20411;-94
2023/08/02 13:42:25;;;;;;;6.40;3.60;;;;;;;;;;4920576;29;20058;-93
2023/08/02 13:44:54;;;;;;;5.15;3.33;;;;;;;;;;4937653;29;20051;-92
2023/08/02 13:47:21;;;;;;;4.93;2.97;;;;;;;;;;4938366;29;20051;-93
2023/08/02 13:49:52;;;;;;;3.90;2.85;;;;;;;;;;4937032;29;20053;-93
2023/08/02 13:52:19;;;;;;;7.88;3.38;;;;;;;;;;4937264;29;20082;-92
2023/08/02 13:54:49;;;;;;;3.78;3.00;;;;;;;;;;4936985;29;20058;-94
2023/08/02 13:57:21;;;;;;;4.77;3.63;;;;;;;;;;4938578;29;20060;-93
2023/08/02 13:59:50;;;;;;;5.25;3.42;;;;;;;;;;4936114;29;20319;-94
2023/08/02 14:02:17;;;;;;;4.10;2.95;;;;;;;;;;4933244;29;20052;-93
2023/08/02 14:04:49;;;;;;;9.27;3.10;;;;;;;;;;4941525;29;20047;-92
2023/08/02 14:07:17;;;;;;;4.60;2.70;;;;;;;;;;4925391;29;20055;-93
2023/08/02 14:09:45;;;;;;;4.57;3.03;;;;;;;;;;4938034;29;20059;-92
2023/08/02 14:12:14;;;;;;;4.45;2.60;;;;;;;;;;4920800;29;20055;-93
2023/08/02 14:14:42;;;;;;;5.05;3.08;;;;;;;;;;4942319;29;20047;-93
2023/08/02 14:17:09;;;;;;;4.50;3.08;;;;;;;;;;4941142;29;20074;-93
2023/08/02 14:19:37;;;;;;;4.22;2.30;;;;;;;;;;4936254;29;20043;-92
2023/08/02 14:22:07;;;;;;;3.80;2.50;;;;;;;;;;4948443;28;20060;-93
2023/08/02 14:24:34;;;;;;;7.22;3.40;;;;;;;;;;4943234;29;20078;-92
2023/08/02 14:27:07;;;;;;;4.10;2.78;;;;;;;;;;4932281;29;20048;-92
2023/08/02 14:29:35;;;;;;;3.30;2.58;;;;;;;;;;4936437;29;20048;-93
2023/08/02 14:32:02;;;;;;;3.35;2.65;;;;;;;;;;4933682;29;20059;-93
2023/08/02 14:34:29;;;;;;;3.47;2.60;;;;;;;;;;4937465;29;20051;-92
2023/08/02 14:36:57;;;;;;;4.75;2.70;;;;;;;;;;4936756;29;20047;-94
2023/08/02 14:39:29;;;;;;;6.18;3.22;;;;;;;;;;4920845;29;20055;-92
2023/08/02 14:41:59;;;;;;;4.32;2.80;;;;;;;;;;4935939;29;20063;-92
2023/08/02 14:44:26;;;;;;;4.15;2.85;;;;;;;;;;4911708;29;20078;-93
2023/08/02 14:46:54;;;;;;;3.85;2.60;;;;;;;;;;4931077;29;20058;-93
2023/08/02 14:49:23;;;;;;;4.25;3.00;;;;;;;;;;4937949;29;20229;-92
2023/08/02 14:51:51;;;;;;;5.55;3.75;;;;;;;;;;4930988;29;20047;-92
2023/08/02 14:54:18;;;;;;;5.35;3.67;;;;;;;;;;4933877;29;20514;-94
2023/08/02 14:56:50;;;;;;;7.10;2.83;;;;;;;;;;4921456;29;20044;-93